Time;durP1;ratioP1;P1;durP2;ratioP2;P2;SDS_P1;SDS_P2;PMS_P1;PMS_P2;Temp;Humidity;BMP_temperature;BMP_pressure;BME280_temperature;BME280_humidity;BME280_pressure;Samples;Min_cycle;Max_cycle;Signal;HPM_P1;HPM_P2
2022/01/08 00:00:43;;;;;;;2.15;0.60;;;2.60;99.90;;;;;;4989393;28;19925;-80
2022/01/08 00:03:09;;;;;;;3.70;0.82;;;2.60;99.90;;;;;;5005062;28;20064;-80
2022/01/08 00:05:35;;;;;;;2.25;0.80;;;2.50;99.90;;;;;;4987964;28;20237;-81
2022/01/08 00:08:01;;;;;;;2.22;0.77;;;2.50;99.90;;;;;;5005564;28;20030;-81
2022/01/08 00:10:26;;;;;;;3.28;1.00;;;2.40;99.90;;;;;;5004812;28;20022;-81
2022/01/08 00:12:53;;;;;;;2.55;0.88;;;2.40;99.90;;;;;;5002836;28;20186;-79
2022/01/08 00:15:44;;;;;;;2.67;0.80;;;2.40;99.90;;;;;;4985488;28;20081;-79
2022/01/08 00:18:15;;;;;;;2.88;1.10;;;2.30;99.90;;;;;;4968558;28;20187;-81
2022/01/08 00:20:45;;;;;;;4.03;1.50;;;2.30;99.90;;;;;;4986214;28;20103;-80
2022/01/08 00:23:11;;;;;;;3.33;1.40;;;2.30;99.90;;;;;;4968491;28;20364;-80
2022/01/08 00:25:36;;;;;;;3.28;1.42;;;2.20;99.90;;;;;;4968913;28;20030;-80
2022/01/08 00:28:02;;;;;;;3.00;1.33;;;2.20;99.90;;;;;;4969141;28;20038;-81
2022/01/08 00:30:31;;;;;;;5.53;1.50;;;2.20;99.90;;;;;;4985254;28;20035;-79
2022/01/08 00:32:59;;;;;;;3.47;1.40;;;2.30;99.90;;;;;;4969265;28;20039;-80
2022/01/08 00:35:26;;;;;;;3.67;1.40;;;2.30;99.90;;;;;;5000540;28;20244;-79
2022/01/08 00:37:51;;;;;;;4.85;1.73;;;2.40;99.90;;;;;;4987725;28;20661;-80
2022/01/08 00:40:17;;;;;;;3.55;1.42;;;2.40;99.90;;;;;;5005024;28;20030;-80
2022/01/08 00:42:43;;;;;;;3.50;1.67;;;2.40;99.90;;;;;;4988183;28;20034;-81
2022/01/08 00:45:09;;;;;;;3.78;1.60;;;2.40;99.90;;;;;;5004041;28;20069;-79
2022/01/08 00:47:35;;;;;;;3.53;1.50;;;2.50;99.90;;;;;;5005290;28;20301;-81
2022/01/08 00:50:03;;;;;;;2.80;1.45;;;2.50;99.90;;;;;;5005560;28;20022;-80
2022/01/08 00:52:29;;;;;;;3.53;1.40;;;2.50;99.90;;;;;;4987473;28;20050;-79
2022/01/08 00:54:55;;;;;;;2.72;1.40;;;2.80;99.90;;;;;;5000346;28;20025;-80
2022/01/08 00:57:20;;;;;;;4.95;1.50;;;2.80;99.90;;;;;;5004501;28;20073;-80
2022/01/08 00:59:49;;;;;;;4.05;1.90;;;2.80;99.90;;;;;;5005082;28;20049;-79
2022/01/08 01:02:15;;;;;;;4.65;1.63;;;2.80;99.90;;;;;;4967989;28;20050;-78
2022/01/08 01:04:41;;;;;;;3.42;1.65;;;2.80;99.90;;;;;;4984736;28;20095;-79
2022/01/08 01:07:06;;;;;;;3.90;1.60;;;2.80;99.90;;;;;;4984953;28;20085;-79
2022/01/08 01:09:32;;;;;;;3.95;2.10;;;2.80;99.90;;;;;;4967031;28;20026;-79
2022/01/08 01:11:58;;;;;;;5.30;2.30;;;2.70;99.90;;;;;;4985015;28;20069;-80
2022/01/08 01:14:25;;;;;;;4.95;2.13;;;2.60;99.90;;;;;;4984385;28;20068;-80
2022/01/08 01:16:51;;;;;;;3.15;1.90;;;2.60;99.90;;;;;;4985519;28;20068;-80
2022/01/08 01:19:17;;;;;;;2.97;1.50;;;2.70;99.90;;;;;;5003536;28;20022;-80
2022/01/08 01:21:43;;;;;;;4.50;2.05;;;2.70;99.90;;;;;;4986583;28;20030;-80
2022/01/08 01:24:15;;;;;;;3.85;2.00;;;2.60;99.90;;;;;;4970286;28;20026;-80
2022/01/08 01:26:54;;;;;;;4.43;1.83;;;2.70;99.90;;;;;;5004097;28;20061;-78
2022/01/08 01:48:21;;;;;;;3.55;1.85;;;2.50;99.90;;;;;;5002681;28;20034;-80
2022/01/08 01:50:47;;;;;;;3.25;1.80;;;2.60;99.90;;;;;;4986466;28;20038;-80
2022/01/08 01:53:14;;;;;;;3.72;1.88;;;2.50;99.90;;;;;;4985858;28;20324;-80
2022/01/08 01:55:41;;;;;;;4.22;2.05;;;2.50;99.90;;;;;;4986493;28;20149;-79
2022/01/08 01:58:08;;;;;;;4.63;2.03;;;2.60;99.90;;;;;;5002638;28;20329;-79
2022/01/08 02:00:34;;;;;;;6.95;2.05;;;2.50;99.90;;;;;;4985792;28;20030;-79
2022/01/08 02:03:00;;;;;;;3.10;1.85;;;2.50;99.90;;;;;;4986306;28;20272;-81
2022/01/08 02:05:27;;;;;;;4.80;1.98;;;2.50;99.90;;;;;;4985307;28;20034;-81
2022/01/08 02:07:57;;;;;;;4.25;2.10;;;2.50;99.90;;;;;;4985790;28;20214;-78
2022/01/08 02:10:23;;;;;;;5.47;2.28;;;2.50;99.90;;;;;;5002663;28;20109;-79
2022/01/08 02:12:49;;;;;;;3.42;1.80;;;2.50;99.90;;;;;;4985831;28;20368;-79
2022/01/08 02:15:15;;;;;;;6.43;2.50;;;2.40;99.90;;;;;;4985132;28;20030;-79
2022/01/08 02:17:42;;;;;;;3.92;1.75;;;2.50;99.90;;;;;;5002749;28;20014;-79
2022/01/08 02:20:09;;;;;;;4.05;2.13;;;2.50;99.90;;;;;;4969778;28;20031;-79
2022/01/08 02:22:35;;;;;;;5.13;1.80;;;2.60;99.90;;;;;;5002242;28;20034;-78
2022/01/08 02:25:01;;;;;;;4.18;1.80;;;2.60;99.90;;;;;;5003266;28;20036;-80
2022/01/08 02:27:27;;;;;;;4.78;1.80;;;2.70;99.90;;;;;;4985308;28;20041;-79
2022/01/08 02:29:53;;;;;;;2.92;1.88;;;2.70;99.90;;;;;;5003072;28;20038;-79
2022/01/08 02:32:26;;;;;;;3.60;1.80;;;2.80;99.90;;;;;;4968857;28;20042;-78
2022/01/08 02:34:52;;;;;;;3.95;1.58;;;2.80;99.90;;;;;;4985684;28;20033;-78
2022/01/08 02:37:20;;;;;;;3.45;1.70;;;2.80;99.90;;;;;;5006659;28;20030;-79
2022/01/08 02:39:48;;;;;;;4.28;1.83;;;2.80;99.90;;;;;;4985000;28;20033;-78
2022/01/08 02:42:19;;;;;;;3.25;1.55;;;2.90;99.90;;;;;;4985104;28;20033;-78
2022/01/08 02:44:46;;;;;;;3.08;1.25;;;2.90;99.90;;;;;;5002947;28;20356;-78
2022/01/08 02:47:17;;;;;;;2.58;1.48;;;2.90;99.90;;;;;;5002736;28;20046;-79
2022/01/08 02:49:43;;;;;;;4.35;1.33;;;2.90;99.90;;;;;;5002843;28;20194;-80
2022/01/08 02:52:10;;;;;;;3.85;1.65;;;3.00;99.90;;;;;;5002682;28;20038;-79
2022/01/08 02:54:36;;;;;;;3.22;1.40;;;3.10;99.90;;;;;;4984912;28;20046;-79
2022/01/08 02:57:02;;;;;;;3.50;1.15;;;3.10;99.90;;;;;;4985398;28;20309;-79
2022/01/08 02:59:29;;;;;;;3.70;1.23;;;3.10;99.90;;;;;;5001677;28;20068;-78
2022/01/08 03:01:55;;;;;;;4.25;1.30;;;3.20;99.90;;;;;;5006853;28;20378;-78
2022/01/08 03:04:21;;;;;;;3.10;1.10;;;3.10;99.90;;;;;;4989105;28;20098;-78
2022/01/08 03:06:47;;;;;;;4.35;1.30;;;3.20;99.90;;;;;;4989329;28;20094;-79
2022/01/08 03:09:13;;;;;;;2.38;1.05;;;3.20;99.90;;;;;;4973098;28;20065;-78
2022/01/08 03:11:39;;;;;;;2.25;0.85;;;3.40;99.90;;;;;;4988461;28;20313;-78
2022/01/08 03:14:06;;;;;;;2.25;0.80;;;3.50;99.90;;;;;;4989030;28;20027;-78
2022/01/08 03:16:32;;;;;;;2.77;0.90;;;3.60;99.90;;;;;;5006110;28;20022;-80
2022/01/08 03:18:58;;;;;;;3.38;1.05;;;3.60;99.90;;;;;;4988863;28;20301;-79
2022/01/08 03:21:24;;;;;;;3.45;0.68;;;3.70;99.90;;;;;;5005726;28;20097;-79
2022/01/08 03:23:57;;;;;;;2.70;0.70;;;3.80;99.90;;;;;;4989045;28;20077;-79
2022/01/08 03:26:25;;;;;;;2.85;0.75;;;3.80;99.90;;;;;;5005251;28;20109;-79
2022/01/08 03:28:51;;;;;;;3.95;0.90;;;3.90;99.90;;;;;;4988951;28;20027;-78
2022/01/08 03:31:18;;;;;;;2.78;0.73;;;3.90;99.90;;;;;;4987889;28;20109;-78
2022/01/08 03:33:44;;;;;;;2.50;0.75;;;4.00;99.90;;;;;;5006040;28;20054;-80
2022/01/08 03:36:11;;;;;;;2.40;0.75;;;3.90;99.90;;;;;;5006059;28;20042;-79
2022/01/08 03:38:37;;;;;;;1.55;0.60;;;3.90;99.90;;;;;;5005084;28;20053;-79
2022/01/08 03:41:03;;;;;;;2.20;0.93;;;3.90;99.90;;;;;;4988156;28;20065;-80
2022/01/08 03:43:29;;;;;;;2.60;0.95;;;3.80;99.90;;;;;;4988252;28;20294;-80
2022/01/08 03:45:55;;;;;;;2.42;0.70;;;3.70;99.90;;;;;;5005995;28;20339;-80
2022/01/08 03:48:33;;;;;;;2.05;0.98;;;3.70;99.90;;;;;;4988167;28;20026;-80
2022/01/08 03:50:59;;;;;;;4.30;1.00;;;3.70;99.90;;;;;;5005950;28;20030;-79
2022/01/08 03:53:26;;;;;;;2.40;0.90;;;3.60;99.90;;;;;;5004869;28;20101;-79
2022/01/08 03:55:53;;;;;;;3.47;1.05;;;3.60;99.90;;;;;;5005815;28;20093;-80
2022/01/08 03:58:19;;;;;;;2.83;1.00;;;3.70;99.90;;;;;;5004879;28;20139;-80
2022/01/08 04:00:48;;;;;;;3.33;1.27;;;3.60;99.90;;;;;;4987991;28;20305;-79
2022/01/08 04:03:18;;;;;;;3.80;1.25;;;3.60;99.90;;;;;;5005428;28;20248;-79
2022/01/08 04:05:49;;;;;;;2.53;1.30;;;3.50;99.90;;;;;;5005149;28;20034;-81
2022/01/08 04:08:16;;;;;;;3.33;1.08;;;3.50;99.90;;;;;;4988062;28;20030;-79
2022/01/08 04:10:43;;;;;;;;;;;3.40;99.90;;;;;;5005592;28;20224;-80
2022/01/08 04:13:13;;;;;;;2.95;1.35;;;3.40;99.90;;;;;;5004774;28;19997;-79
2022/01/08 04:15:46;;;;;;;3.55;1.67;;;3.30;99.90;;;;;;5004614;28;20034;-80
2022/01/08 04:18:12;;;;;;;4.03;1.63;;;3.30;99.90;;;;;;4987726;28;20073;-80
2022/01/08 04:24:01;;;;;;;4.25;1.48;;;3.30;99.90;;;;;;4996713;28;20033;-78
2022/01/08 04:26:52;;;;;;;2.22;1.23;;;3.30;99.90;;;;;;4991010;28;20045;-79
2022/01/08 04:29:43;;;;;;;3.58;1.70;;;3.40;99.90;;;;;;5004299;28;20029;-80
2022/01/08 04:32:34;;;;;;;3.22;1.95;;;3.40;99.90;;;;;;5004140;28;20041;-78
2022/01/08 04:35:00;;;;;;;3.17;1.58;;;3.40;99.90;;;;;;5004892;28;20022;-79
2022/01/08 04:37:27;;;;;;;3.70;1.80;;;3.50;99.90;;;;;;5004601;28;20090;-78
2022/01/08 04:39:52;;;;;;;3.80;1.65;;;3.50;99.90;;;;;;4987491;28;20301;-78
2022/01/08 04:42:18;;;;;;;3.70;1.73;;;3.50;99.90;;;;;;4987156;28;20145;-78
2022/01/08 04:45:11;;;;;;;3.75;1.90;;;3.50;99.90;;;;;;4971645;28;20026;-78
2022/01/08 04:47:37;;;;;;;2.65;1.65;;;3.50;99.90;;;;;;4967307;28;20094;-78
2022/01/08 04:50:29;;;;;;;3.30;1.70;;;3.40;99.90;;;;;;4984620;28;20150;-78
2022/01/08 04:53:20;;;;;;;4.35;1.77;;;3.30;99.90;;;;;;4984958;28;20049;-79
2022/01/08 04:56:11;;;;;;;4.07;1.65;;;3.10;99.90;;;;;;4985066;28;20391;-79
2022/01/08 04:59:02;;;;;;;3.38;2.28;;;3.00;99.90;;;;;;4983663;28;20200;-79
2022/01/08 05:01:30;;;;;;;2.92;1.70;;;3.00;99.90;;;;;;4964477;28;20105;-80
2022/01/08 05:03:56;;;;;;;2.95;1.85;;;2.90;99.90;;;;;;4993107;28;20309;-80
2022/01/08 05:06:47;;;;;;;3.67;1.42;;;2.80;99.90;;;;;;5003749;28;20065;-80
2022/01/08 05:09:38;;;;;;;5.07;1.92;;;2.80;99.90;;;;;;5003482;28;20064;-79
2022/01/08 05:12:29;;;;;;;4.05;2.00;;;2.80;99.90;;;;;;5003400;28;20049;-79
2022/01/08 05:15:20;;;;;;;3.72;1.95;;;2.60;99.90;;;;;;5003880;28;20069;-79
2022/01/08 05:18:12;;;;;;;5.30;2.30;;;2.50;99.90;;;;;;5004246;28;20068;-79
2022/01/08 05:21:17;;;;;;;3.15;1.38;;;2.40;99.90;;;;;;5003869;28;20057;-80
2022/01/08 05:24:08;;;;;;;3.75;1.77;;;2.30;99.90;;;;;;5003185;28;20234;-80
2022/01/08 05:26:59;;;;;;;3.50;2.00;;;2.30;99.90;;;;;;5003515;28;20107;-79
2022/01/08 05:29:51;;;;;;;3.35;1.80;;;2.30;99.90;;;;;;5003396;28;20101;-79
2022/01/08 05:32:42;;;;;;;3.20;2.00;;;2.30;99.90;;;;;;4988964;28;20124;-80
2022/01/08 05:35:33;;;;;;;4.70;1.92;;;2.30;99.90;;;;;;4989254;28;20134;-80
2022/01/08 05:38:24;;;;;;;2.95;1.67;;;2.30;99.90;;;;;;5003461;28;20388;-80
2022/01/08 05:42:05;;;;;;;2.97;1.70;;;2.30;99.90;;;;;;5003229;28;20048;-80
2022/01/08 05:45:46;;;;;;;3.92;1.70;;;2.40;99.90;;;;;;5003006;28;20028;-80
2022/01/08 05:49:28;;;;;;;2.53;1.20;;;2.40;99.90;;;;;;5002453;28;20049;-80
2022/01/08 05:53:09;;;;;;;2.70;1.40;;;2.50;99.90;;;;;;5003064;28;20261;-79
2022/01/08 05:56:51;;;;;;;2.75;1.10;;;2.50;99.90;;;;;;5002887;28;20064;-78
2022/01/08 06:00:32;;;;;;;3.15;0.93;;;2.50;99.90;;;;;;5002659;28;20080;-79
2022/01/08 06:03:24;;;;;;;;;;;2.60;99.90;;;;;;5001265;28;20034;-78
2022/01/08 06:07:05;;;;;;;0.85;0.40;;;2.60;99.90;;;;;;4998283;28;19921;-80
2022/01/08 06:10:47;;;;;;;0.60;0.20;;;2.70;99.90;;;;;;5000386;28;20045;-80
2022/01/08 06:14:29;;;;;;;1.42;0.57;;;2.70;99.90;;;;;;4999936;28;20045;-80
2022/01/08 06:18:09;;;;;;;1.73;0.40;;;2.70;99.90;;;;;;4998568;28;20064;-80
2022/01/08 06:21:50;;;;;;;0.55;0.20;;;2.60;99.90;;;;;;4980892;28;20110;-79
2022/01/08 06:25:33;;;;;;;0.57;0.20;;;2.50;99.90;;;;;;4980355;28;20225;-79
2022/01/08 06:29:14;;;;;;;0.60;0.25;;;2.50;99.90;;;;;;4998482;28;20085;-80
2022/01/08 06:32:55;;;;;;;1.05;0.40;;;2.50;99.90;;;;;;4999486;28;20087;-80
2022/01/08 06:36:38;;;;;;;1.48;0.40;;;2.40;99.90;;;;;;4999141;28;20093;-80
2022/01/08 06:40:19;;;;;;;1.10;0.30;;;2.40;99.90;;;;;;4999176;28;20110;-80
2022/01/08 06:44:00;;;;;;;1.20;0.40;;;2.40;99.90;;;;;;4999880;28;20332;-79
2022/01/08 06:47:45;;;;;;;1.38;0.40;;;2.40;99.90;;;;;;4993332;28;20057;-79
2022/01/08 06:51:26;;;;;;;1.98;0.47;;;2.40;99.90;;;;;;4979749;28;20233;-78
2022/01/08 06:55:08;;;;;;;1.20;0.40;;;2.40;99.90;;;;;;4980961;28;20146;-78
2022/01/08 06:58:49;;;;;;;1.50;0.55;;;2.30;99.90;;;;;;4982856;28;20050;-78
2022/01/08 07:02:29;;;;;;;1.40;0.60;;;2.40;99.90;;;;;;4981814;28;20050;-78
2022/01/08 07:06:10;;;;;;;1.92;0.50;;;2.40;99.90;;;;;;4982990;28;20099;-79
2022/01/08 07:09:52;;;;;;;1.80;0.55;;;2.40;99.90;;;;;;4984361;28;20097;-80
2022/01/08 07:13:34;;;;;;;1.55;0.70;;;2.40;99.90;;;;;;5001923;28;20093;-81
2022/01/08 07:17:15;;;;;;;1.80;0.90;;;2.40;99.90;;;;;;5001633;28;20114;-81
2022/01/08 07:20:57;;;;;;;1.63;0.70;;;2.40;99.90;;;;;;5002092;28;20324;-80
2022/01/08 07:24:38;;;;;;;2.90;1.10;;;2.30;99.90;;;;;;4987838;28;20049;-81
2022/01/08 07:28:20;;;;;;;2.70;1.00;;;2.40;99.90;;;;;;5002001;28;20069;-80
2022/01/08 07:32:01;;;;;;;1.90;0.90;;;2.30;99.90;;;;;;4981917;28;20112;-79
2022/01/08 07:35:43;;;;;;;3.53;1.23;;;2.20;99.90;;;;;;4982091;28;20041;-79
2022/01/08 07:39:24;;;;;;;4.85;1.20;;;2.20;99.90;;;;;;4982097;28;20042;-80
2022/01/08 07:43:05;;;;;;;3.55;1.70;;;2.10;99.90;;;;;;4982736;28;20069;-79
2022/01/08 07:46:46;;;;;;;4.40;1.75;;;2.10;99.90;;;;;;4982363;28;20049;-80
2022/01/08 07:50:27;;;;;;;2.63;1.33;;;2.10;99.90;;;;;;4990116;28;20029;-80
2022/01/08 07:54:09;;;;;;;3.28;1.50;;;2.10;99.90;;;;;;5005291;28;20367;-80
2022/01/08 07:57:50;;;;;;;4.28;1.52;;;2.10;99.90;;;;;;5002656;28;20343;-81
2022/01/08 08:01:31;;;;;;;4.03;1.73;;;2.00;99.90;;;;;;4982322;28;20108;-80
2022/01/08 08:05:12;;;;;;;4.40;1.90;;;2.00;99.90;;;;;;4983565;28;20053;-80
2022/01/08 08:08:53;;;;;;;4.47;1.52;;;2.10;99.90;;;;;;4981597;28;20105;-81
2022/01/08 08:12:34;;;;;;;3.67;1.30;;;2.00;99.90;;;;;;4966040;29;20344;-80
2022/01/08 08:16:15;;;;;;;2.70;1.27;;;2.30;99.90;;;;;;4951991;28;20418;-80
2022/01/08 08:19:56;;;;;;;3.28;1.60;;;2.40;99.90;;;;;;4959089;28;20253;-80
2022/01/08 08:23:38;;;;;;;6.65;1.70;;;2.30;99.90;;;;;;4984879;28;20038;-80
2022/01/08 08:27:19;;;;;;;5.43;1.42;;;2.40;99.90;;;;;;4985074;28;20106;-81
2022/01/08 08:31:01;;;;;;;5.63;1.83;;;2.40;99.90;;;;;;4970934;28;20042;-80
2022/01/08 08:34:43;;;;;;;2.53;1.27;;;2.50;99.90;;;;;;4984759;28;20046;-79
2022/01/08 08:38:25;;;;;;;3.28;1.20;;;2.60;99.90;;;;;;4984774;28;20367;-79
2022/01/08 08:42:07;;;;;;;3.75;1.30;;;2.70;99.90;;;;;;4984884;28;20042;-79
2022/01/08 08:45:47;;;;;;;2.70;1.08;;;2.80;99.90;;;;;;4984560;28;20328;-78
2022/01/08 08:49:28;;;;;;;5.18;0.90;;;2.90;99.90;;;;;;4970232;28;20042;-79
2022/01/08 08:53:09;;;;;;;3.15;0.90;;;2.80;99.90;;;;;;4984717;28;20042;-80
2022/01/08 08:56:50;;;;;;;5.45;1.00;;;2.80;99.90;;;;;;4974112;28;20245;-80
2022/01/08 09:00:32;;;;;;;2.88;0.80;;;2.90;99.90;;;;;;4964890;29;20054;-79
2022/01/08 09:04:14;;;;;;;3.72;0.73;;;3.00;99.90;;;;;;4951405;29;20078;-79
2022/01/08 09:07:55;;;;;;;2.67;0.68;;;3.10;99.90;;;;;;4979145;28;20077;-79
2022/01/08 09:11:36;;;;;;;4.25;0.85;;;3.20;99.90;;;;;;4984384;28;20034;-79
2022/01/08 09:15:24;;;;;;;4.15;1.00;;;3.30;99.90;;;;;;5004219;28;20145;-80
2022/01/08 09:19:04;;;;;;;4.83;1.10;;;3.30;99.90;;;;;;5004158;28;20080;-81
2022/01/08 09:22:46;;;;;;;3.08;0.90;;;3.20;99.90;;;;;;5000248;28;20060;-82
2022/01/08 09:26:27;;;;;;;4.00;1.08;;;3.10;99.90;;;;;;5009114;28;20041;-81
2022/01/08 09:30:09;;;;;;;3.60;0.82;;;3.20;99.90;;;;;;5023377;28;20033;-79
2022/01/08 09:33:51;;;;;;;6.03;1.02;;;3.20;99.90;;;;;;5009173;28;20045;-80
2022/01/08 09:37:37;;;;;;;2.72;1.00;;;3.30;99.90;;;;;;5023068;28;20331;-79
2022/01/08 09:41:18;;;;;;;3.65;1.20;;;3.40;99.90;;;;;;5014448;28;20053;-82
2022/01/08 09:44:59;;;;;;;4.53;1.20;;;3.60;99.90;;;;;;4970982;28;20078;-81
2022/01/08 09:48:40;;;;;;;3.65;1.30;;;3.60;99.90;;;;;;4984510;28;20065;-81
2022/01/08 09:52:21;;;;;;;3.08;1.10;;;3.60;99.90;;;;;;4970301;28;20030;-79
2022/01/08 09:55:13;;;;;;;5.45;1.48;;;3.60;99.90;;;;;;4984622;28;20069;-80
2022/01/08 09:57:58;;;;;;;3.10;1.23;;;3.80;99.90;;;;;;4969273;28;20053;-80
2022/01/08 10:00:25;;;;;;;7.10;1.40;;;3.90;99.90;;;;;;4947718;28;20039;-85
2022/01/08 10:02:51;;;;;;;5.78;1.40;;;4.00;99.90;;;;;;4957329;28;20093;-81
2022/01/08 10:05:17;;;;;;;5.75;1.83;;;4.10;99.90;;;;;;4950989;28;20022;-81
2022/01/08 10:08:00;;;;;;;3.00;1.20;;;4.10;99.90;;;;;;4983113;28;20122;-81
2022/01/08 10:10:27;;;;;;;3.78;0.98;;;4.10;99.90;;;;;;4982910;28;20058;-80
2022/01/08 10:13:00;;;;;;;3.33;1.07;;;4.00;99.90;;;;;;4966191;28;20034;-80
2022/01/08 10:18:32;;;;;;;4.38;1.10;;;4.20;99.90;;;;;;5003042;28;20090;-81
2022/01/08 10:20:59;;;;;;;3.42;1.00;;;4.30;99.90;;;;;;4985723;28;20026;-79
2022/01/08 10:23:28;;;;;;;4.70;1.35;;;4.40;99.90;;;;;;4974543;28;20026;-79
2022/01/08 10:26:11;;;;;;;4.65;1.38;;;4.10;99.90;;;;;;4965610;28;20023;-79
2022/01/08 10:28:51;;;;;;;4.07;1.20;;;4.10;99.90;;;;;;4983539;28;20031;-79
2022/01/08 10:31:22;;;;;;;3.22;1.20;;;4.10;99.90;;;;;;4983020;28;20057;-78
2022/01/08 10:34:02;;;;;;;3.35;1.20;;;4.10;99.90;;;;;;4983207;28;20355;-80
2022/01/08 10:36:31;;;;;;;3.50;1.20;;;4.00;99.90;;;;;;4982185;28;20038;-78
2022/01/08 10:38:59;;;;;;;3.88;1.00;;;4.10;99.90;;;;;;4982179;28;20023;-78
2022/01/08 10:41:27;;;;;;;3.10;1.10;;;4.10;99.90;;;;;;4983291;28;20085;-78
2022/01/08 10:44:17;;;;;;;5.80;1.30;;;4.00;99.90;;;;;;4978679;28;20054;-79
2022/01/08 10:47:07;;;;;;;4.80;1.58;;;4.00;99.90;;;;;;4982782;28;20093;-80
2022/01/08 10:49:42;;;;;;;5.47;1.20;;;4.10;99.90;;;;;;4983515;28;20023;-79
2022/01/08 10:52:17;;;;;;;5.78;1.45;;;4.10;99.90;;;;;;4982384;28;20220;-79
2022/01/08 10:54:45;;;;;;;6.07;1.30;;;4.20;99.90;;;;;;4983602;28;20026;-78
2022/01/08 10:57:14;;;;;;;4.25;1.33;;;4.10;99.90;;;;;;4983141;28;20027;-78
2022/01/08 10:59:41;;;;;;;9.32;1.50;;;4.10;99.90;;;;;;4981835;28;20058;-79
2022/01/08 11:02:11;;;;;;;5.25;1.67;;;4.00;99.90;;;;;;4965017;28;20053;-79
2022/01/08 11:04:39;;;;;;;4.25;1.13;;;4.10;99.90;;;;;;4978923;28;20038;-80
2022/01/08 11:07:31;;;;;;;3.65;0.90;;;4.00;99.90;;;;;;4985990;28;20113;-79
2022/01/08 11:10:01;;;;;;;4.55;1.50;;;4.00;99.90;;;;;;4992442;28;20045;-81
2022/01/08 11:12:37;;;;;;;4.97;1.30;;;4.00;99.90;;;;;;5001732;28;20030;-80
2022/01/08 11:17:43;;;;;;;3.40;1.27;;;4.20;99.90;;;;;;5001751;28;20065;-80
2022/01/08 11:20:29;;;;;;;5.88;1.63;;;4.40;99.90;;;;;;5001019;28;20110;-79
2022/01/08 11:23:01;;;;;;;3.17;1.10;;;5.40;99.90;;;;;;5006124;28;20034;-78
2022/01/08 11:25:36;;;;;;;5.68;1.10;;;6.70;99.90;;;;;;5002638;28;20058;-79
2022/01/08 11:28:13;;;;;;;4.45;0.80;;;7.30;99.90;;;;;;5005457;28;20022;-80
2022/01/08 11:30:45;;;;;;;3.83;1.02;;;8.50;99.90;;;;;;5005406;28;20101;-79
2022/01/08 11:33:38;;;;;;;3.15;1.05;;;9.30;99.90;;;;;;5004837;28;20034;-79
2022/01/08 11:36:08;;;;;;;6.10;1.00;;;9.10;99.10;;;;;;5005429;28;20317;-80
2022/01/08 11:38:59;;;;;;;3.17;1.13;;;8.20;99.90;;;;;;5004656;28;20033;-79
2022/01/08 11:41:25;;;;;;;3.58;1.30;;;7.20;99.90;;;;;;5004485;28;20042;-78
2022/01/08 11:43:54;;;;;;;4.70;0.95;;;6.50;99.90;;;;;;5004194;28;20221;-79
2022/01/08 11:46:21;;;;;;;4.07;1.13;;;5.90;99.90;;;;;;4998552;28;20031;-79
2022/01/08 11:48:54;;;;;;;5.15;1.15;;;5.60;99.90;;;;;;4984764;28;20026;-79
2022/01/08 11:51:24;;;;;;;4.32;1.08;;;6.20;99.90;;;;;;4985530;28;20073;-80
2022/01/08 11:53:55;;;;;;;3.65;1.10;;;7.30;99.90;;;;;;4985935;28;20113;-81
2022/01/08 11:56:32;;;;;;;4.22;1.17;;;7.80;99.90;;;;;;4986623;28;20097;-81
2022/01/08 11:59:15;;;;;;;4.50;1.10;;;8.10;99.90;;;;;;4984715;28;20022;-78
2022/01/08 12:01:46;;;;;;;5.78;1.08;;;6.90;99.90;;;;;;4984592;28;20038;-79
2022/01/08 12:04:32;;;;;;;4.32;1.75;;;6.30;99.90;;;;;;4984543;28;20205;-80
2022/01/08 12:07:19;;;;;;;6.22;1.33;;;6.30;99.90;;;;;;4988715;28;20105;-79
2022/01/08 12:09:46;;;;;;;5.30;1.10;;;6.70;99.90;;;;;;4987553;28;20030;-78
2022/01/08 12:12:12;;;;;;;5.07;2.10;;;6.50;99.90;;;;;;5004733;28;20098;-79
2022/01/08 12:14:37;;;;;;;5.20;1.20;;;6.60;99.90;;;;;;5005526;28;20026;-78
2022/01/08 12:17:18;;;;;;;4.63;1.50;;;6.70;99.90;;;;;;5004634;28;20113;-78
2022/01/08 12:19:55;;;;;;;32.17;15.50;;;6.70;99.90;;;;;;5005434;28;20081;-78
2022/01/08 12:22:21;;;;;;;14.85;7.13;;;6.70;99.90;;;;;;5005031;28;20046;-78
2022/01/08 12:25:00;;;;;;;3.55;1.52;;;7.80;99.90;;;;;;5005222;28;20109;-78
2022/01/08 12:27:35;;;;;;;4.22;1.20;;;7.40;99.90;;;;;;5002916;28;20018;-79
2022/01/08 12:30:01;;;;;;;4.03;0.90;;;6.70;99.90;;;;;;4984710;28;20023;-80
2022/01/08 12:32:37;;;;;;;11.05;6.22;;;6.80;99.90;;;;;;4984267;28;20230;-79
2022/01/08 12:35:18;;;;;;;9.23;2.10;;;6.90;99.90;;;;;;4983697;28;20197;-80
2022/01/08 12:37:55;;;;;;;4.88;1.52;;;7.80;99.90;;;;;;4983737;28;20041;-80
2022/01/08 12:40:40;;;;;;;7.60;3.83;;;9.40;99.90;;;;;;4984860;28;20034;-81
2022/01/08 12:43:20;;;;;;;4.60;2.30;;;8.90;99.90;;;;;;4985283;28;20038;-81
2022/01/08 12:45:48;;;;;;;5.45;2.58;;;8.30;99.90;;;;;;4984983;28;20381;-79
2022/01/08 12:48:15;;;;;;;3.50;1.30;;;7.30;99.90;;;;;;4986543;28;20221;-79
2022/01/08 12:50:43;;;;;;;5.13;1.77;;;6.80;99.90;;;;;;5005358;28;20030;-79
2022/01/08 12:53:11;;;;;;;4.68;1.73;;;6.60;99.90;;;;;;5003298;28;20038;-78
2022/01/08 12:55:56;;;;;;;3.88;1.20;;;7.00;99.90;;;;;;5003496;28;20053;-79
2022/01/08 12:58:30;;;;;;;3.47;1.40;;;8.20;99.90;;;;;;5004462;28;20026;-79
2022/01/08 13:01:01;;;;;;;5.30;1.00;;;8.90;99.90;;;;;;5003338;28;20206;-81
2022/01/08 13:03:31;;;;;;;4.70;1.30;;;8.60;99.90;;;;;;5003193;28;20042;-79
2022/01/08 13:06:02;;;;;;;3.25;1.25;;;9.10;99.90;;;;;;5002383;28;20030;-79
2022/01/08 13:08:31;;;;;;;2.20;0.80;;;10.00;99.90;;;;;;5001525;28;20049;-81
2022/01/08 13:11:00;;;;;;;4.18;1.25;;;9.90;99.30;;;;;;4999253;28;20252;-80
2022/01/08 13:13:49;;;;;;;5.22;1.23;;;10.20;99.20;;;;;;5003147;28;20041;-79
2022/01/08 13:16:41;;;;;;;3.78;1.10;;;9.50;99.50;;;;;;5003105;28;20042;-81
2022/01/08 13:19:14;;;;;;;3.15;1.10;;;9.50;99.90;;;;;;5003649;28;20037;-80
2022/01/08 13:21:47;;;;;;;5.63;1.23;;;9.60;99.90;;;;;;5004664;28;20257;-79
2022/01/08 13:24:16;;;;;;;3.60;1.10;;;9.30;99.70;;;;;;5002878;28;20038;-80
2022/01/08 13:26:47;;;;;;;3.15;1.10;;;8.80;99.90;;;;;;4987013;28;20018;-78
2022/01/08 13:29:35;;;;;;;2.42;1.00;;;8.10;99.90;;;;;;5000477;28;20030;-79
2022/01/08 13:32:08;;;;;;;2.63;0.82;;;7.70;99.90;;;;;;5001303;28;20042;-79
2022/01/08 13:34:44;;;;;;;3.72;1.60;;;7.50;99.90;;;;;;4986323;28;20105;-79
2022/01/08 13:37:14;;;;;;;2.03;0.70;;;6.80;99.90;;;;;;5001861;28;20030;-79
2022/01/08 13:39:43;;;;;;;2.05;0.85;;;6.50;99.90;;;;;;5002519;28;20278;-78
2022/01/08 13:42:14;;;;;;;1.88;0.93;;;6.10;99.90;;;;;;5002954;28;20297;-79
2022/01/08 13:44:47;;;;;;;2.75;0.85;;;6.10;99.90;;;;;;5002608;28;20081;-78
2022/01/08 13:47:21;;;;;;;4.60;1.65;;;5.90;99.90;;;;;;5002811;28;20345;-78
2022/01/08 13:49:53;;;;;;;2.67;1.10;;;5.80;99.90;;;;;;4985589;28;20035;-78
2022/01/08 13:52:27;;;;;;;2.83;1.13;;;5.50;99.90;;;;;;4999990;28;20046;-79
2022/01/08 13:55:14;;;;;;;2.60;1.10;;;5.40;99.90;;;;;;5002664;28;20190;-78
2022/01/08 13:57:40;;;;;;;2.75;1.13;;;5.50;99.90;;;;;;5003355;28;20080;-79
2022/01/08 14:00:22;;;;;;;5.15;1.88;;;5.70;99.90;;;;;;5002797;28;20053;-78
2022/01/08 14:02:53;;;;;;;3.65;1.38;;;5.60;99.90;;;;;;5002102;28;20328;-80
2022/01/08 14:05:22;;;;;;;2.13;0.88;;;5.50;99.90;;;;;;5001725;28;20373;-78
2022/01/08 14:07:48;;;;;;;4.28;1.30;;;5.20;99.90;;;;;;5002819;28;20225;-78
2022/01/08 14:10:15;;;;;;;2.00;1.00;;;5.20;99.90;;;;;;4981979;28;20083;-78
2022/01/08 14:13:03;;;;;;;4.57;1.10;;;5.30;99.90;;;;;;4996765;28;20293;-78
2022/01/08 14:15:31;;;;;;;9.80;1.77;;;5.10;99.90;;;;;;4983188;28;20206;-79
2022/01/08 14:18:07;;;;;;;6.05;1.15;;;5.10;99.90;;;;;;4981966;28;20485;-80
2022/01/08 14:20:34;;;;;;;3.13;1.25;;;5.10;99.90;;;;;;4999128;28;20057;-79
2022/01/08 14:23:18;;;;;;;3.08;1.10;;;5.20;99.90;;;;;;4981903;28;20026;-78
2022/01/08 14:25:46;;;;;;;3.03;1.63;;;5.20;99.90;;;;;;4983660;28;20165;-78
2022/01/08 14:28:27;;;;;;;3.25;1.15;;;5.20;99.90;;;;;;4997989;28;20050;-80
2022/01/08 14:31:20;;;;;;;2.70;1.00;;;5.20;99.90;;;;;;4983489;28;20039;-78
2022/01/08 14:34:12;;;;;;;2.22;1.00;;;5.40;99.90;;;;;;4986970;28;20030;-79
2022/01/08 14:36:58;;;;;;;3.20;1.00;;;5.80;99.90;;;;;;4982006;28;20224;-77
2022/01/08 14:39:30;;;;;;;3.10;1.05;;;5.90;99.90;;;;;;4982598;28;20201;-78
2022/01/08 14:41:58;;;;;;;1.70;0.80;;;5.80;99.90;;;;;;4983674;28;20027;-78
2022/01/08 14:44:25;;;;;;;2.47;0.82;;;5.50;99.90;;;;;;4983470;28;20177;-79
2022/01/08 14:46:51;;;;;;;3.22;0.80;;;5.40;99.90;;;;;;4983337;28;20098;-78
2022/01/08 14:49:17;;;;;;;3.33;1.10;;;5.30;99.90;;;;;;4983389;28;20284;-79
2022/01/08 14:51:44;;;;;;;3.72;1.20;;;5.30;99.90;;;;;;4983497;28;20097;-79
2022/01/08 14:54:09;;;;;;;2.92;1.10;;;5.10;99.90;;;;;;4983103;28;20380;-78
2022/01/08 14:56:36;;;;;;;2.45;1.00;;;4.90;99.90;;;;;;4985581;28;20045;-80
2022/01/08 14:59:03;;;;;;;2.22;1.00;;;4.60;99.90;;;;;;4986809;28;20022;-80
2022/01/08 15:01:29;;;;;;;3.90;1.00;;;4.50;99.90;;;;;;4986623;28;20050;-80
2022/01/08 15:03:56;;;;;;;3.00;1.05;;;4.30;99.90;;;;;;4986097;28;20034;-80
2022/01/08 15:06:22;;;;;;;6.40;1.45;;;4.20;99.90;;;;;;4987074;28;20031;-79
2022/01/08 15:08:48;;;;;;;2.63;0.85;;;4.20;99.90;;;;;;4985873;28;20367;-79
2022/01/08 15:11:13;;;;;;;3.63;1.00;;;4.10;99.90;;;;;;5003185;28;20030;-79